sensor_id;sensor_type;location;lat;lon;timestamp;pressure;altitude;pressure_sealevel;temperature;humidity
39301;BME280;25019;42.626;23.380;2024-03-17T00:01:50;94524.69;;;5.40;100.00
39301;BME280;25019;42.626;23.380;2024-03-17T00:04:16;94673.09;;;6.37;100.00
39301;BME280;25019;42.626;23.380;2024-03-17T00:06:41;94694.69;;;6.52;100.00
39301;BME280;25019;42.626;23.380;2024-03-17T00:09:08;94625.03;;;6.03;100.00
39301;BME280;25019;42.626;23.380;2024-03-17T00:11:35;94700.56;;;6.54;100.00
39301;BME280;25019;42.626;23.380;2024-03-17T00:14:02;94631.06;;;6.10;100.00
39301;BME280;25019;42.626;23.380;2024-03-17T00:16:27;94635.50;;;6.16;100.00
39301;BME280;25019;42.626;23.380;2024-03-17T00:18:53;94681.38;;;6.40;100.00
39301;BME280;25019;42.626;23.380;2024-03-17T00:21:19;94661.44;;;6.19;100.00
39301;BME280;25019;42.626;23.380;2024-03-17T00:23:50;94698.44;;;6.38;100.00
39301;BME280;25019;42.626;23.380;2024-03-17T00:26:16;94675.84;;;6.23;100.00
39301;BME280;25019;42.626;23.380;2024-03-17T00:28:42;94625.91;;;5.90;100.00
39301;BME280;25019;42.626;23.380;2024-03-17T00:31:08;94621.50;;;5.83;100.00
39301;BME280;25019;42.626;23.380;2024-03-17T00:33:36;94681.09;;;6.23;100.00
39301;BME280;25019;42.626;23.380;2024-03-17T00:36:02;94684.16;;;6.20;100.00
39301;BME280;25019;42.626;23.380;2024-03-17T00:38:28;94579.13;;;5.53;100.00
39301;BME280;25019;42.626;23.380;2024-03-17T00:40:54;94676.28;;;6.13;100.00
39301;BME280;25019;42.626;23.380;2024-03-17T00:43:20;94671.66;;;6.09;100.00
39301;BME280;25019;42.626;23.380;2024-03-17T00:45:52;94671.88;;;6.07;100.00
39301;BME280;25019;42.626;23.380;2024-03-17T00:48:18;94676.94;;;6.09;100.00
39301;BME280;25019;42.626;23.380;2024-03-17T00:50:44;94683.22;;;6.08;100.00
39301;BME280;25019;42.626;23.380;2024-03-17T00:53:13;94685.25;;;6.06;100.00
39301;BME280;25019;42.626;23.380;2024-03-17T00:55:39;94639.78;;;5.78;100.00
39301;BME280;25019;42.626;23.380;2024-03-17T00:58:05;94573.16;;;5.32;100.00
39301;BME280;25019;42.626;23.380;2024-03-17T01:00:31;94662.22;;;5.88;100.00
39301;BME280;25019;42.626;23.380;2024-03-17T01:02:58;94691.78;;;5.96;100.00
39301;BME280;25019;42.626;23.380;2024-03-17T01:05:24;94610.97;;;5.45;100.00
39301;BME280;25019;42.626;23.380;2024-03-17T01:07:50;94547.16;;;5.04;100.00
39301;BME280;25019;42.626;23.380;2024-03-17T01:10:16;94560.53;;;5.02;100.00
39301;BME280;25019;42.626;23.380;2024-03-17T01:12:41;94493.13;;;4.56;100.00
39301;BME280;25019;42.626;23.380;2024-03-17T01:15:08;94646.56;;;5.61;100.00
39301;BME280;25019;42.626;23.380;2024-03-17T01:17:34;94598.94;;;5.23;100.00
39301;BME280;25019;42.626;23.380;2024-03-17T01:19:59;94620.09;;;5.42;100.00
39301;BME280;25019;42.626;23.380;2024-03-17T01:22:25;94686.59;;;5.83;100.00
39301;BME280;25019;42.626;23.380;2024-03-17T01:24:51;94625.75;;;5.46;100.00
39301;BME280;25019;42.626;23.380;2024-03-17T01:27:17;94548.25;;;4.89;100.00
39301;BME280;25019;42.626;23.380;2024-03-17T01:29:43;94650.84;;;5.55;100.00
39301;BME280;25019;42.626;23.380;2024-03-17T01:32:09;94669.25;;;5.62;100.00
39301;BME280;25019;42.626;23.380;2024-03-17T01:34:37;94604.03;;;5.12;100.00
39301;BME280;25019;42.626;23.380;2024-03-17T01:37:03;94645.47;;;5.36;100.00
39301;BME280;25019;42.626;23.380;2024-03-17T01:39:29;94645.47;;;5.36;100.00
39301;BME280;25019;42.626;23.380;2024-03-17T01:41:56;94609.72;;;5.08;100.00
39301;BME280;25019;42.626;23.380;2024-03-17T01:44:27;94694.41;;;5.58;100.00
39301;BME280;25019;42.626;23.380;2024-03-17T01:46:54;94695.63;;;5.55;100.00
39301;BME280;25019;42.626;23.380;2024-03-17T01:49:21;94562.88;;;4.72;100.00
39301;BME280;25019;42.626;23.380;2024-03-17T01:51:48;94680.66;;;5.49;100.00
39301;BME280;25019;42.626;23.380;2024-03-17T01:54:15;94621.09;;;5.02;100.00
39301;BME280;25019;42.626;23.380;2024-03-17T01:56:42;94659.88;;;5.27;100.00
39301;BME280;25019;42.626;23.380;2024-03-17T01:59:09;94446.78;;;3.82;100.00
39301;BME280;25019;42.626;23.380;2024-03-17T02:01:36;94614.22;;;4.94;100.00
39301;BME280;25019;42.626;23.380;2024-03-17T02:04:04;94631.38;;;5.04;100.00
39301;BME280;25019;42.626;23.380;2024-03-17T02:06:30;94584.75;;;4.65;100.00
39301;BME280;25019;42.626;23.380;2024-03-17T02:08:56;94610.81;;;4.87;100.00
39301;BME280;25019;42.626;23.380;2024-03-17T02:11:32;94687.00;;;5.34;100.00
39301;BME280;25019;42.626;23.380;2024-03-17T02:13:59;94566.97;;;4.54;100.00
39301;BME280;25019;42.626;23.380;2024-03-17T02:16:25;94647.38;;;5.09;100.00
39301;BME280;25019;42.626;23.380;2024-03-17T02:18:57;94681.31;;;5.31;100.00
39301;BME280;25019;42.626;23.380;2024-03-17T02:21:27;94563.56;;;4.40;100.00
39301;BME280;25019;42.626;23.380;2024-03-17T02:23:53;94574.25;;;4.52;100.00
39301;BME280;25019;42.626;23.380;2024-03-17T02:26:19;94564.78;;;4.38;100.00
39301;BME280;25019;42.626;23.380;2024-03-17T02:28:46;94696.38;;;5.23;100.00
39301;BME280;25019;42.626;23.380;2024-03-17T02:31:14;94561.34;;;4.30;100.00
39301;BME280;25019;42.626;23.380;2024-03-17T02:33:41;94649.47;;;4.93;100.00
39301;BME280;25019;42.626;23.380;2024-03-17T02:36:08;94605.38;;;4.62;100.00
39301;BME280;25019;42.626;23.380;2024-03-17T02:38:35;94609.44;;;4.64;100.00
39301;BME280;25019;42.626;23.380;2024-03-17T02:41:19;94587.44;;;4.39;100.00
39301;BME280;25019;42.626;23.380;2024-03-17T02:43:45;94685.06;;;5.03;100.00
39301;BME280;25019;42.626;23.380;2024-03-17T02:46:12;94533.88;;;4.13;100.00
39301;BME280;25019;42.626;23.380;2024-03-17T02:48:42;94607.44;;;4.60;100.00
39301;BME280;25019;42.626;23.380;2024-03-17T02:51:13;94622.59;;;4.64;100.00
39301;BME280;25019;42.626;23.380;2024-03-17T02:53:44;94532.06;;;4.07;100.00
39301;BME280;25019;42.626;23.380;2024-03-17T02:56:14;94637.56;;;4.71;100.00
39301;BME280;25019;42.626;23.380;2024-03-17T02:58:44;94548.22;;;4.10;100.00
39301;BME280;25019;42.626;23.380;2024-03-17T03:01:15;94682.06;;;4.92;100.00
39301;BME280;25019;42.626;23.380;2024-03-17T03:03:41;94681.44;;;4.90;100.00
39301;BME280;25019;42.626;23.380;2024-03-17T03:06:08;94692.16;;;4.89;100.00
39301;BME280;25019;42.626;23.380;2024-03-17T03:08:41;94669.72;;;4.79;100.00
39301;BME280;25019;42.626;23.380;2024-03-17T03:11:09;94679.44;;;4.86;100.00
39301;BME280;25019;42.626;23.380;2024-03-17T03:13:39;94601.63;;;4.31;100.00
39301;BME280;25019;42.626;23.380;2024-03-17T03:16:12;94677.44;;;4.74;100.00
39301;BME280;25019;42.626;23.380;2024-03-17T03:18:41;94671.16;;;4.75;100.00
39301;BME280;25019;42.626;23.380;2024-03-17T03:21:10;94678.66;;;4.72;100.00
39301;BME280;25019;42.626;23.380;2024-03-17T03:23:36;94665.09;;;4.61;100.00
39301;BME280;25019;42.626;23.380;2024-03-17T03:26:03;94643.88;;;4.49;100.00
39301;BME280;25019;42.626;23.380;2024-03-17T03:28:31;94674.41;;;4.64;100.00
39301;BME280;25019;42.626;23.380;2024-03-17T03:30:57;94558.97;;;3.88;100.00
39301;BME280;25019;42.626;23.380;2024-03-17T03:33:24;94664.91;;;4.56;100.00
39301;BME280;25019;42.626;23.380;2024-03-17T03:35:50;94676.41;;;4.62;100.00
39301;BME280;25019;42.626;23.380;2024-03-17T03:38:17;94633.16;;;4.38;100.00
39301;BME280;25019;42.626;23.380;2024-03-17T03:40:43;94678.25;;;4.61;100.00
39301;BME280;25019;42.626;23.380;2024-03-17T03:43:12;94681.69;;;4.62;100.00
39301;BME280;25019;42.626;23.380;2024-03-17T03:45:39;94690.00;;;4.59;100.00
39301;BME280;25019;42.626;23.380;2024-03-17T03:48:06;94689.59;;;4.55;100.00
39301;BME280;25019;42.626;23.380;2024-03-17T03:50:34;94535.88;;;3.50;100.00
39301;BME280;25019;42.626;23.380;2024-03-17T03:53:00;94690.81;;;4.53;100.00
39301;BME280;25019;42.626;23.380;2024-03-17T03:55:26;94676.66;;;4.33;100.00
39301;BME280;25019;42.626;23.380;2024-03-17T03:57:51;94699.50;;;4.46;100.00
39301;BME280;25019;42.626;23.380;2024-03-17T04:00:20;94686.78;;;4.30;100.00
39301;BME280;25019;42.626;23.380;2024-03-17T04:02:51;94703.53;;;4.42;100.00
39301;BME280;25019;42.626;23.380;2024-03-17T04:05:17;94646.72;;;4.08;100.00
39301;BME280;25019;42.626;23.380;2024-03-17T04:07:46;94702.31;;;4.38;100.00
39301;BME280;25019;42.626;23.380;2024-03-17T04:10:13;94702.53;;;4.37;100.00
39301;BME280;25019;42.626;23.380;2024-03-17T04:12:39;94705.16;;;4.37;100.00
39301;BME280;25019;42.626;23.380;2024-03-17T04:15:05;94619.97;;;3.77;100.00
39301;BME280;25019;42.626;23.380;2024-03-17T04:17:32;94634.16;;;3.89;100.00
39301;BME280;25019;42.626;23.380;2024-03-17T04:19:59;94712.06;;;4.31;100.00
39301;BME280;25019;42.626;23.380;2024-03-17T04:22:25;94641.19;;;3.75;100.00
39301;BME280;25019;42.626;23.380;2024-03-17T04:24:51;94697.25;;;4.16;100.00
39301;BME280;25019;42.626;23.380;2024-03-17T04:27:22;94719.91;;;4.24;100.00
39301;BME280;25019;42.626;23.380;2024-03-17T04:29:49;94577.69;;;3.32;100.00
39301;BME280;25019;42.626;23.380;2024-03-17T04:32:15;94728.41;;;4.19;100.00
39301;BME280;25019;42.626;23.380;2024-03-17T04:34:41;94734.69;;;4.18;100.00
39301;BME280;25019;42.626;23.380;2024-03-17T04:37:09;94740.72;;;4.19;100.00
39301;BME280;25019;42.626;23.380;2024-03-17T04:39:42;94735.47;;;4.19;100.00
39301;BME280;25019;42.626;23.380;2024-03-17T04:42:16;94640.34;;;3.55;100.00
39301;BME280;25019;42.626;23.380;2024-03-17T04:44:45;94657.97;;;3.68;100.00
39301;BME280;25019;42.626;23.380;2024-03-17T04:47:11;94734.06;;;4.23;100.00
39301;BME280;25019;42.626;23.380;2024-03-17T04:49:39;94664.44;;;3.72;100.00
39301;BME280;25019;42.626;23.380;2024-03-17T04:52:05;94703.09;;;3.92;100.00
39301;BME280;25019;42.626;23.380;2024-03-17T04:54:31;94647.81;;;3.51;100.00
39301;BME280;25019;42.626;23.380;2024-03-17T04:56:57;94637.88;;;3.40;100.00
39301;BME280;25019;42.626;23.380;2024-03-17T04:59:23;94678.81;;;3.76;100.00
39301;BME280;25019;42.626;23.380;2024-03-17T05:01:49;94666.63;;;3.62;100.00
39301;BME280;25019;42.626;23.380;2024-03-17T05:04:15;94675.34;;;3.75;100.00
39301;BME280;25019;42.626;23.380;2024-03-17T05:06:41;94614.44;;;3.38;100.00
39301;BME280;25019;42.626;23.380;2024-03-17T05:09:08;94759.78;;;4.41;100.00
39301;BME280;25019;42.626;23.380;2024-03-17T05:11:33;94712.41;;;4.14;100.00
39301;BME280;25019;42.626;23.380;2024-03-17T05:14:01;94744.81;;;4.42;100.00
39301;BME280;25019;42.626;23.380;2024-03-17T05:16:26;94734.09;;;4.30;100.00
39301;BME280;25019;42.626;23.380;2024-03-17T05:18:55;94691.81;;;4.18;100.00
39301;BME280;25019;42.626;23.380;2024-03-17T05:21:21;94783.50;;;4.82;100.00
39301;BME280;25019;42.626;23.380;2024-03-17T05:23:49;94710.81;;;4.47;100.00
39301;BME280;25019;42.626;23.380;2024-03-17T05:26:15;94667.13;;;4.26;100.00
39301;BME280;25019;42.626;23.380;2024-03-17T05:28:41;94751.28;;;4.93;100.00
39301;BME280;25019;42.626;23.380;2024-03-17T05:31:07;94714.88;;;4.76;100.00
39301;BME280;25019;42.626;23.380;2024-03-17T05:33:32;94696.63;;;4.75;100.00
39301;BME280;25019;42.626;23.380;2024-03-17T05:36:00;94675.00;;;4.59;100.00
39301;BME280;25019;42.626;23.380;2024-03-17T05:38:29;94783.63;;;5.47;100.00
39301;BME280;25019;42.626;23.380;2024-03-17T05:41:03;94757.72;;;5.37;100.00
39301;BME280;25019;42.626;23.380;2024-03-17T05:43:30;94762.13;;;5.50;100.00
39301;BME280;25019;42.626;23.380;2024-03-17T05:45:59;94787.00;;;5.68;100.00
39301;BME280;25019;42.626;23.380;2024-03-17T05:48:26;94589.81;;;4.60;100.00
39301;BME280;25019;42.626;23.380;2024-03-17T05:50:52;94759.44;;;5.70;100.00
39301;BME280;25019;42.626;23.380;2024-03-17T05:53:20;94732.28;;;5.63;100.00
39301;BME280;25019;42.626;23.380;2024-03-17T05:55:46;94747.81;;;5.85;100.00
39301;BME280;25019;42.626;23.380;2024-03-17T05:58:12;94732.03;;;5.78;100.00
39301;BME280;25019;42.626;23.380;2024-03-17T06:00:39;94739.72;;;5.80;100.00
39301;BME280;25019;42.626;23.380;2024-03-17T06:03:06;94689.19;;;5.44;100.00
39301;BME280;25019;42.626;23.380;2024-03-17T06:05:33;94756.47;;;5.99;100.00
39301;BME280;25019;42.626;23.380;2024-03-17T06:08:04;94776.91;;;6.17;100.00
39301;BME280;25019;42.626;23.380;2024-03-17T06:10:31;94741.66;;;6.05;100.00
39301;BME280;25019;42.626;23.380;2024-03-17T06:12:57;94718.34;;;5.95;100.00
39301;BME280;25019;42.626;23.380;2024-03-17T06:15:24;94709.63;;;6.01;100.00
39301;BME280;25019;42.626;23.380;2024-03-17T06:17:51;94744.91;;;6.39;100.00
39301;BME280;25019;42.626;23.380;2024-03-17T06:20:23;94714.78;;;6.21;100.00
39301;BME280;25019;42.626;23.380;2024-03-17T06:22:55;94700.53;;;6.29;100.00
39301;BME280;25019;42.626;23.380;2024-03-17T06:25:46;94775.66;;;6.84;100.00
39301;BME280;25019;42.626;23.380;2024-03-17T06:28:14;94751.34;;;6.75;100.00
39301;BME280;25019;42.626;23.380;2024-03-17T06:30:47;94798.69;;;7.20;100.00
39301;BME280;25019;42.626;23.380;2024-03-17T06:33:19;94779.69;;;7.12;100.00
39301;BME280;25019;42.626;23.380;2024-03-17T06:35:45;94758.38;;;7.07;100.00
39301;BME280;25019;42.626;23.380;2024-03-17T06:38:14;94787.13;;;7.40;100.00
39301;BME280;25019;42.626;23.380;2024-03-17T06:40:41;94795.59;;;7.49;100.00
39301;BME280;25019;42.626;23.380;2024-03-17T06:43:07;94734.78;;;7.12;100.00
39301;BME280;25019;42.626;23.380;2024-03-17T06:45:33;94811.81;;;7.71;100.00
39301;BME280;25019;42.626;23.380;2024-03-17T06:47:59;94794.34;;;7.70;100.00
39301;BME280;25019;42.626;23.380;2024-03-17T06:50:25;94814.41;;;7.97;100.00
39301;BME280;25019;42.626;23.380;2024-03-17T06:52:50;94789.56;;;7.98;100.00
39301;BME280;25019;42.626;23.380;2024-03-17T06:55:18;94787.78;;;8.10;100.00
39301;BME280;25019;42.626;23.380;2024-03-17T06:57:44;94809.78;;;8.41;100.00
39301;BME280;25019;42.626;23.380;2024-03-17T07:00:13;94811.53;;;8.47;100.00
39301;BME280;25019;42.626;23.380;2024-03-17T07:02:40;94810.44;;;8.55;100.00
39301;BME280;25019;42.626;23.380;2024-03-17T07:05:15;94811.03;;;8.57;99.42
39301;BME280;25019;42.626;23.380;2024-03-17T07:07:42;94795.72;;;8.59;99.77
39301;BME280;25019;42.626;23.380;2024-03-17T07:10:08;94714.47;;;8.29;98.04
39301;BME280;25019;42.626;23.380;2024-03-17T07:12:34;94794.19;;;8.94;96.39
39301;BME280;25019;42.626;23.380;2024-03-17T07:15:00;94746.41;;;8.77;95.88
39301;BME280;25019;42.626;23.380;2024-03-17T07:17:26;94802.41;;;9.28;95.28
39301;BME280;25019;42.626;23.380;2024-03-17T07:19:51;94755.03;;;9.08;96.15
39301;BME280;25019;42.626;23.380;2024-03-17T07:22:17;94791.47;;;9.48;99.24
39301;BME280;25019;42.626;23.380;2024-03-17T07:24:43;94795.72;;;9.61;97.22
39301;BME280;25019;42.626;23.380;2024-03-17T07:27:10;94791.41;;;9.84;93.29
39301;BME280;25019;42.626;23.380;2024-03-17T07:29:39;94747.34;;;9.83;91.98
39301;BME280;25019;42.626;23.380;2024-03-17T07:32:05;94794.53;;;10.45;89.58
39301;BME280;25019;42.626;23.380;2024-03-17T07:34:32;94792.69;;;10.63;86.98
39301;BME280;25019;42.626;23.380;2024-03-17T07:36:58;94782.91;;;10.52;85.64
39301;BME280;25019;42.626;23.380;2024-03-17T07:39:32;94786.88;;;10.49;86.14
39301;BME280;25019;42.626;23.380;2024-03-17T07:42:02;94797.53;;;10.66;84.87
39301;BME280;25019;42.626;23.380;2024-03-17T07:44:31;94774.81;;;10.75;84.04
39301;BME280;25019;42.626;23.380;2024-03-17T07:47:03;94783.78;;;11.03;83.49
39301;BME280;25019;42.626;23.380;2024-03-17T07:49:30;94730.66;;;10.86;81.79
39301;BME280;25019;42.626;23.380;2024-03-17T07:51:55;94801.44;;;11.44;80.55
39301;BME280;25019;42.626;23.380;2024-03-17T07:54:24;94804.00;;;11.56;79.91
39301;BME280;25019;42.626;23.380;2024-03-17T07:56:50;94798.94;;;11.54;78.38
39301;BME280;25019;42.626;23.380;2024-03-17T07:59:16;94747.22;;;11.11;77.94
39301;BME280;25019;42.626;23.380;2024-03-17T08:01:44;94694.81;;;10.55;78.65
39301;BME280;25019;42.626;23.380;2024-03-17T08:04:10;94795.72;;;11.18;78.21
39301;BME280;25019;42.626;23.380;2024-03-17T08:09:56;94772.53;;;10.21;81.70
39301;BME280;25019;42.626;23.380;2024-03-17T08:12:21;94792.09;;;10.32;82.60
39301;BME280;25019;42.626;23.380;2024-03-17T08:14:48;94792.50;;;10.53;82.59
39301;BME280;25019;42.626;23.380;2024-03-17T08:17:14;94766.94;;;10.81;81.06
39301;BME280;25019;42.626;23.380;2024-03-17T08:19:39;94781.16;;;10.86;80.92
39301;BME280;25019;42.626;23.380;2024-03-17T08:22:06;94714.44;;;10.54;80.51
39301;BME280;25019;42.626;23.380;2024-03-17T08:24:32;94770.09;;;11.12;79.39
39301;BME280;25019;42.626;23.380;2024-03-17T08:26:59;94715.69;;;10.97;78.45
39301;BME280;25019;42.626;23.380;2024-03-17T08:29:24;94756.31;;;11.32;77.31
39301;BME280;25019;42.626;23.380;2024-03-17T08:31:50;94780.56;;;11.18;77.93
39301;BME280;25019;42.626;23.380;2024-03-17T08:34:16;94688.22;;;10.40;78.54
39301;BME280;25019;42.626;23.380;2024-03-17T08:36:41;94786.94;;;11.17;78.14
39301;BME280;25019;42.626;23.380;2024-03-17T08:39:07;94717.13;;;10.71;77.13
39301;BME280;25019;42.626;23.380;2024-03-17T08:41:34;94792.41;;;11.11;78.01
39301;BME280;25019;42.626;23.380;2024-03-17T08:44:00;94694.88;;;10.43;77.53
39301;BME280;25019;42.626;23.380;2024-03-17T08:46:26;94781.06;;;10.81;79.32
39301;BME280;25019;42.626;23.380;2024-03-17T08:48:52;94779.28;;;10.87;79.20
39301;BME280;25019;42.626;23.380;2024-03-17T08:51:18;94697.25;;;10.27;78.67
39301;BME280;25019;42.626;23.380;2024-03-17T08:53:43;94780.09;;;11.04;78.79
39301;BME280;25019;42.626;23.380;2024-03-17T08:56:09;94744.97;;;11.19;78.33
39301;BME280;25019;42.626;23.380;2024-03-17T08:58:35;94720.91;;;11.09;76.58
39301;BME280;25019;42.626;23.380;2024-03-17T09:01:08;94735.16;;;11.20;77.12
39301;BME280;25019;42.626;23.380;2024-03-17T09:03:35;94762.59;;;11.43;76.92
39301;BME280;25019;42.626;23.380;2024-03-17T09:06:01;94768.22;;;11.46;76.41
39301;BME280;25019;42.626;23.380;2024-03-17T09:08:26;94682.09;;;10.74;76.29
39301;BME280;25019;42.626;23.380;2024-03-17T09:10:54;94749.22;;;11.20;76.51
39301;BME280;25019;42.626;23.380;2024-03-17T09:13:21;94767.50;;;11.51;76.24
39301;BME280;25019;42.626;23.380;2024-03-17T09:15:56;94759.44;;;11.46;76.30
39301;BME280;25019;42.626;23.380;2024-03-17T09:18:31;94671.47;;;10.74;75.64
39301;BME280;25019;42.626;23.380;2024-03-17T09:21:06;94759.28;;;11.35;77.14
39301;BME280;25019;42.626;23.380;2024-03-17T09:23:33;94720.06;;;11.26;76.34
39301;BME280;25019;42.626;23.380;2024-03-17T09:26:02;94712.25;;;11.36;76.60
39301;BME280;25019;42.626;23.380;2024-03-17T09:28:34;94731.16;;;11.39;76.09
39301;BME280;25019;42.626;23.380;2024-03-17T09:31:00;94737.50;;;11.56;75.85
39301;BME280;25019;42.626;23.380;2024-03-17T09:33:28;94690.38;;;11.51;75.22
39301;BME280;25019;42.626;23.380;2024-03-17T09:36:02;94638.94;;;11.45;72.24
39301;BME280;25019;42.626;23.380;2024-03-17T09:38:29;94738.38;;;12.28;71.26
39301;BME280;25019;42.626;23.380;2024-03-17T09:40:55;94695.97;;;12.21;69.91
39301;BME280;25019;42.626;23.380;2024-03-17T09:43:27;94736.56;;;12.61;69.70
39301;BME280;25019;42.626;23.380;2024-03-17T09:45:54;94624.31;;;11.92;66.66
39301;BME280;25019;42.626;23.380;2024-03-17T09:48:24;94724.72;;;12.79;64.03
39301;BME280;25019;42.626;23.380;2024-03-17T09:50:55;94684.88;;;12.62;64.34
39301;BME280;25019;42.626;23.380;2024-03-17T09:53:29;94712.75;;;13.14;61.52
39301;BME280;25019;42.626;23.380;2024-03-17T09:56:12;94632.84;;;12.87;60.54
39301;BME280;25019;42.626;23.380;2024-03-17T09:58:42;94647.69;;;13.15;55.18
39301;BME280;25019;42.626;23.380;2024-03-17T10:01:09;94694.16;;;13.30;54.43
39301;BME280;25019;42.626;23.380;2024-03-17T10:03:48;94716.69;;;13.44;54.99
39301;BME280;25019;42.626;23.380;2024-03-17T10:06:21;94722.50;;;13.89;54.63
39301;BME280;25019;42.626;23.380;2024-03-17T10:08:52;94672.72;;;13.57;52.02
39301;BME280;25019;42.626;23.380;2024-03-17T10:11:23;94696.72;;;13.52;52.52
39301;BME280;25019;42.626;23.380;2024-03-17T10:14:02;94722.75;;;13.88;52.04
39301;BME280;25019;42.626;23.380;2024-03-17T10:16:29;94662.53;;;13.49;50.17
39301;BME280;25019;42.626;23.380;2024-03-17T10:19:28;94714.41;;;13.74;49.71
39301;BME280;25019;42.626;23.380;2024-03-17T10:22:01;94722.38;;;13.58;50.35
39301;BME280;25019;42.626;23.380;2024-03-17T10:24:27;94664.84;;;12.92;51.48
39301;BME280;25019;42.626;23.380;2024-03-17T10:26:58;94643.84;;;12.96;50.56
39301;BME280;25019;42.626;23.380;2024-03-17T10:29:30;94720.34;;;13.81;50.28
39301;BME280;25019;42.626;23.380;2024-03-17T10:32:04;94701.41;;;13.93;49.15
39301;BME280;25019;42.626;23.380;2024-03-17T10:34:31;94593.19;;;13.54;49.07
39301;BME280;25019;42.626;23.380;2024-03-17T10:37:08;94718.66;;;14.33;45.50
39301;BME280;25019;42.626;23.380;2024-03-17T10:39:38;94622.38;;;13.76;47.72
39301;BME280;25019;42.626;23.380;2024-03-17T10:42:05;94711.69;;;14.43;48.52
39301;BME280;25019;42.626;23.380;2024-03-17T10:44:33;94677.47;;;14.19;47.03
39301;BME280;25019;42.626;23.380;2024-03-17T10:47:00;94658.50;;;14.15;45.77
39301;BME280;25019;42.626;23.380;2024-03-17T10:49:32;94712.75;;;14.26;44.48
39301;BME280;25019;42.626;23.380;2024-03-17T10:52:08;94702.06;;;14.26;44.70
39301;BME280;25019;42.626;23.380;2024-03-17T10:54:47;94716.50;;;14.41;46.02
39301;BME280;25019;42.626;23.380;2024-03-17T10:59:41;94661.47;;;14.50;46.64
39301;BME280;25019;42.626;23.380;2024-03-17T11:02:28;94674.88;;;14.86;44.86
39301;BME280;25019;42.626;23.380;2024-03-17T11:04:56;94670.03;;;14.93;44.55
39301;BME280;25019;42.626;23.380;2024-03-17T11:07:23;94694.13;;;15.04;43.62
39301;BME280;25019;42.626;23.380;2024-03-17T11:09:50;94682.91;;;14.86;44.35
39301;BME280;25019;42.626;23.380;2024-03-17T11:17:51;94700.25;;;14.78;44.16
39301;BME280;25019;42.626;23.380;2024-03-17T11:20:23;94639.28;;;14.54;43.67
39301;BME280;25019;42.626;23.380;2024-03-17T11:22:54;94695.47;;;14.91;43.34
39301;BME280;25019;42.626;23.380;2024-03-17T11:27:54;94580.19;;;13.89;43.46
39301;BME280;25019;42.626;23.380;2024-03-17T11:46:59;94674.34;;;14.74;50.44
39301;BME280;25019;42.626;23.380;2024-03-17T11:49:36;94623.25;;;14.39;51.36
39301;BME280;25019;42.626;23.380;2024-03-17T11:52:13;94661.50;;;14.71;51.34
39301;BME280;25019;42.626;23.380;2024-03-17T11:54:44;94620.03;;;14.16;51.67
39301;BME280;25019;42.626;23.380;2024-03-17T11:57:12;94550.00;;;13.73;51.00
39301;BME280;25019;42.626;23.380;2024-03-17T11:59:39;94646.22;;;14.50;49.65
39301;BME280;25019;42.626;23.380;2024-03-17T12:02:18;94654.03;;;14.78;49.15
39301;BME280;25019;42.626;23.380;2024-03-17T12:04:44;94577.56;;;14.56;48.95
39301;BME280;25019;42.626;23.380;2024-03-17T12:07:15;94585.59;;;14.56;48.31
39301;BME280;25019;42.626;23.380;2024-03-17T12:09:42;94617.13;;;14.54;47.75
39301;BME280;25019;42.626;23.380;2024-03-17T12:12:10;94591.75;;;14.41;47.71
39301;BME280;25019;42.626;23.380;2024-03-17T12:14:37;94649.47;;;14.83;48.14
39301;BME280;25019;42.626;23.380;2024-03-17T12:17:06;94651.88;;;14.80;47.60
39301;BME280;25019;42.626;23.380;2024-03-17T12:19:33;94533.47;;;13.97;47.34
39301;BME280;25019;42.626;23.380;2024-03-17T12:22:00;94638.53;;;14.80;47.63
39301;BME280;25019;42.626;23.380;2024-03-17T12:24:28;94572.25;;;14.30;46.96
39301;BME280;25019;42.626;23.380;2024-03-17T12:26:55;94643.88;;;14.75;47.55
39301;BME280;25019;42.626;23.380;2024-03-17T12:32:06;94618.44;;;14.10;48.47
39301;BME280;25019;42.626;23.380;2024-03-17T12:34:37;94622.94;;;14.09;48.20
39301;BME280;25019;42.626;23.380;2024-03-17T12:37:04;94579.38;;;13.78;48.83
39301;BME280;25019;42.626;23.380;2024-03-17T12:39:32;94522.94;;;13.33;49.22
39301;BME280;25019;42.626;23.380;2024-03-17T12:42:10;94495.69;;;13.15;49.38
39301;BME280;25019;42.626;23.380;2024-03-17T12:44:38;94622.13;;;13.99;49.36
39301;BME280;25019;42.626;23.380;2024-03-17T12:47:14;94525.50;;;13.07;50.81
39301;BME280;25019;42.626;23.380;2024-03-17T12:49:45;94617.56;;;13.78;51.78
39301;BME280;25019;42.626;23.380;2024-03-17T12:55:00;94562.75;;;13.50;53.26
39301;BME280;25019;42.626;23.380;2024-03-17T12:57:46;94560.63;;;13.47;54.52
39301;BME280;25019;42.626;23.380;2024-03-17T13:00:30;94628.19;;;13.63;54.63
39301;BME280;25019;42.626;23.380;2024-03-17T13:03:00;94450.09;;;12.48;55.77
39301;BME280;25019;42.626;23.380;2024-03-17T13:05:26;94388.69;;;12.17;56.02
39301;BME280;25019;42.626;23.380;2024-03-17T13:07:53;94624.28;;;14.02;56.00
39301;BME280;25019;42.626;23.380;2024-03-17T13:10:20;94621.88;;;14.00;55.70
39301;BME280;25019;42.626;23.380;2024-03-17T13:12:47;94613.56;;;13.81;56.37
39301;BME280;25019;42.626;23.380;2024-03-17T13:15:16;94633.59;;;13.78;57.90
39301;BME280;25019;42.626;23.380;2024-03-17T13:17:45;94602.28;;;13.58;57.81
39301;BME280;25019;42.626;23.380;2024-03-17T13:20:15;94591.31;;;13.44;58.63
39301;BME280;25019;42.626;23.380;2024-03-17T13:22:44;94632.78;;;13.83;59.09
39301;BME280;25019;42.626;23.380;2024-03-17T13:25:21;94616.44;;;13.64;59.15
39301;BME280;25019;42.626;23.380;2024-03-17T13:27:55;94616.47;;;13.69;59.66
39301;BME280;25019;42.626;23.380;2024-03-17T13:30:23;94612.19;;;13.68;60.65
39301;BME280;25019;42.626;23.380;2024-03-17T13:32:52;94485.09;;;12.67;60.54